Informes METAR cercanos

 

LEBZ - Talavera Ab/Bada, Spain
Distancia desde la estación: ONO 43km
Actualización: 09/08/2020 09:30
Despejado(0/8)
Despejado(0/8)
 Viento del variable
Viento: variable 4 km/h
Temperatura: 21°C
Rocío: 15°C
Humedad: 69%
Barómetro: 1016 hPa
Resumen: Despejado , 0/8
Visibilidad: Superior a 10 km
2020/08/09 07:30 LEBZ 090730Z VRB02KT CAVOK 21/15 Q1016